Etusivu
METAR-TAF:

METAR-TAF

Lentoasemat :

Glasgow, Montana, Yhdysvallat

Leveyspiiri: 48-12-50N, Pituuspiiri: 106-37-17W, korkeus merenpinnasta: 699 m

Tämänhetkinen sää

Tämä raportti tehtiin 53 minuuttia sitten, kello 09.53 UTC
Tuuli 10 kn pohjoisesta
Lämpötila -18°C
Kosteus 65%
Ilmanpaine 1029 hPa
Näkyvyys: 16.1 km
Pilvistä 10000 ft:n korkeudessa

METAR: KGGW 180953Z AUTO 35010KT 10SM OVC100 M18/M23 A3040 RMK AO2 SLP341 T11831233

Aika: 03:46 (10:46 UTC)

Sääennuste

Tämä raportti tehtiin 5 tuntia ja 15 minuuttia sitten, kello 05.31 UTC
Ennuste voimassa 18. päivästä klo 06 UTC - 19. päivään klo 06 UTC
Tuuli 11 kn pohjoisen/luoteesta
Näkyvyys: 10 km
Hajanaisia pilviä 7000 ft:n korkeudessa
From 18. päivästä klo 1400 UTC
Tuuli 7 kn pohjoisesta
Näkyvyys: 10 km
Hajonneita pilviä 3500 ft:n korkeudessa

TAF: KGGW 180531Z 1806/1906 34011KT P6SM SCT070 FM181400 36007KT P6SM BKN035

Säähavainnot ja -ennusteet yli 4000 lentoasemalta (METAR- ja TAF-raportit).

Käytössä olevat sääasemat on merkitty karttaan keltaisilla ja punaisilla pisteillä.

Aseta hiiri pisteen päälle nähdäksesi sääaseman nimen.

Klikkaa sitten nähdäksesi säähavainnot ja -ennusteet.

Kartan vaihtaminen: klikkaa mustalla rastilla varustettuja vihreitä pisteitä, niin voit zoomata sisään; viivalla varustettua vihreää pistettä, niin voit zoomata ulos tai vihreitä nuolia, niin pääset viereisille kartoille.


METAR-TAF: